PWSweather.com
Personal Weather Stations
Station Observations
ISARDEGN48
BittiIT 08021

BittiIT 08021

Lat: 40.4805, Lon: 9.3887

Elevation: 1804

Station Type: La Crosse WS2355

http://meteobitti.altervista.org

High Low Average
Temperature 62.6°F17.0°C 53.2°F11.8°C 58.4°F14.7°C
Dew Point 58.2°F14.6°C 47.8°F8.8°C 54.3°F12.4°C
Winds 22.6 mph 36.4 kmh Calm Calm 8.0 mph SSE12.9 kmh SSE
Wind Gusts 29.5 mph47.5 kmh 4.5 mph7.2 kmh 16.0 mph25.7 kmh
Humidity 90% 79% 86%
Pressure 29.56 in1001.0 mb 29.34 in993.6 mb -
Precipitation 1.73 in43.9 mm - -
Hour Temp Dew Point Humidity Winds Wind Gusts Pressure Precip Precip Rate Daily Precip Total
12:00 AM 61.5°F16.4°C 58.0°F14.4°C 88% 10.1 mph SSW16.3 kmh SSW 18.3 mph29.5 kmh 29.55 in1000.7 mb 0.00 in0.0 mm 0.00 in0.0 mm 0.00 in0.0 mm
12:05 AM 61.5°F16.4°C 58.0°F14.4°C 88% 6.0 mph SSW9.7 kmh SSW 18.1 mph29.1 kmh 29.55 in1000.7 mb 0.00 in0.0 mm 0.00 in0.0 mm 0.00 in0.0 mm
12:10 AM 61.5°F16.4°C 58.0°F14.4°C 88% 14.5 mph SSW23.3 kmh SSW 17.9 mph28.8 kmh 29.55 in1000.7 mb 0.00 in0.0 mm 0.00 in0.0 mm 0.00 in0.0 mm
12:15 AM 61.5°F16.4°C 58.0°F14.4°C 88% 7.8 mph SSW12.6 kmh SSW 20.4 mph32.8 kmh 29.56 in1001.0 mb 0.00 in0.0 mm 0.00 in0.0 mm 0.00 in0.0 mm
12:20 AM 61.3°F16.3°C 57.8°F14.3°C 88% 10.3 mph SSW16.6 kmh SSW 20.4 mph32.8 kmh 29.56 in1001.0 mb 0.00 in0.0 mm 0.00 in0.0 mm 0.00 in0.0 mm
12:25 AM 61.3°F16.3°C 58.1°F14.5°C 89% 11.2 mph SSW18.0 kmh SSW 14.5 mph23.3 kmh 29.55 in1000.7 mb 0.00 in0.0 mm 0.00 in0.0 mm 0.00 in0.0 mm
12:30 AM 61.2°F16.2°C 57.9°F14.4°C 89% 11.0 mph SSW17.7 kmh SSW 19.0 mph30.6 kmh 29.55 in1000.7 mb 0.00 in0.0 mm 0.00 in0.0 mm 0.00 in0.0 mm
12:35 AM 61.0°F16.1°C 57.8°F14.3°C 89% 13.6 mph SSW21.9 kmh SSW 19.0 mph30.6 kmh 29.55 in1000.7 mb 0.00 in0.0 mm 0.00 in0.0 mm 0.00 in0.0 mm
12:40 AM 61.0°F16.1°C 57.4°F14.1°C 88% 14.5 mph SSW23.3 kmh SSW 19.2 mph30.9 kmh 29.54 in1000.3 mb 0.00 in0.0 mm 0.00 in0.0 mm 0.00 in0.0 mm
12:45 AM 61.0°F16.1°C 57.4°F14.1°C 88% 15.2 mph SSW24.5 kmh SSW 19.5 mph31.4 kmh 29.55 in1000.7 mb 0.00 in0.0 mm 0.00 in0.0 mm 0.00 in0.0 mm
12:50 AM 61.0°F16.1°C 57.4°F14.1°C 88% 15.4 mph SSW24.8 kmh SSW 20.1 mph32.3 kmh 29.54 in1000.3 mb 0.00 in0.0 mm 0.00 in0.0 mm 0.00 in0.0 mm
12:55 AM 61.0°F16.1°C 57.8°F14.3°C 89% 17.9 mph SSW28.8 kmh SSW 22.6 mph36.4 kmh 29.54 in1000.3 mb 0.00 in0.0 mm 0.00 in0.0 mm 0.00 in0.0 mm
01:00 AM 60.8°F16.0°C 57.6°F14.2°C 89% 16.1 mph SSW25.9 kmh SSW 22.6 mph36.4 kmh 29.55 in1000.7 mb 0.02 in0.5 mm 0.02 in0.5 mm 0.02 in0.5 mm
01:05 AM 60.8°F16.0°C 57.3°F14.1°C 88% 14.8 mph S23.8 kmh S 20.6 mph33.2 kmh 29.54 in1000.3 mb 0.02 in0.5 mm 0.00 in0.0 mm 0.02 in0.5 mm
01:10 AM 60.8°F16.0°C 57.3°F14.1°C 88% 10.5 mph S16.9 kmh S 21.0 mph33.8 kmh 29.54 in1000.3 mb 0.02 in0.5 mm 0.00 in0.0 mm 0.02 in0.5 mm
01:15 AM 61.0°F16.1°C 57.4°F14.1°C 88% 9.6 mph SSW15.4 kmh SSW 21.0 mph33.8 kmh 29.54 in1000.3 mb 0.02 in0.5 mm 0.00 in0.0 mm 0.02 in0.5 mm
01:20 AM 60.8°F16.0°C 57.3°F14.1°C 88% 9.6 mph SSW15.4 kmh SSW 15.2 mph24.5 kmh 29.54 in1000.3 mb 0.02 in0.5 mm 0.00 in0.0 mm 0.02 in0.5 mm
01:25 AM 60.6°F15.9°C 57.1°F13.9°C 88% 7.2 mph SSW11.6 kmh SSW 15.7 mph25.3 kmh 29.53 in1000.0 mb 0.02 in0.5 mm 0.00 in0.0 mm 0.02 in0.5 mm
01:30 AM 60.6°F15.9°C 57.1°F13.9°C 88% 13.2 mph S21.2 kmh S 19.0 mph30.6 kmh 29.53 in1000.0 mb 0.02 in0.5 mm 0.00 in0.0 mm 0.02 in0.5 mm
01:35 AM 60.4°F15.8°C 56.6°F13.7°C 87% 9.4 mph S15.1 kmh S 19.0 mph30.6 kmh 29.53 in1000.0 mb 0.02 in0.5 mm 0.00 in0.0 mm 0.02 in0.5 mm
01:40 AM 60.4°F15.8°C 56.6°F13.7°C 87% 12.8 mph SSW20.6 kmh SSW 18.6 mph29.9 kmh 29.53 in1000.0 mb 0.02 in0.5 mm 0.00 in0.0 mm 0.02 in0.5 mm
01:45 AM 60.4°F15.8°C 56.9°F13.8°C 88% 5.8 mph SSW9.3 kmh SSW 18.3 mph29.5 kmh 29.53 in1000.0 mb 0.02 in0.5 mm 0.00 in0.0 mm 0.02 in0.5 mm
01:50 AM 60.4°F15.8°C 56.9°F13.8°C 88% 15.9 mph SSW25.6 kmh SSW 17.4 mph28.0 kmh 29.53 in1000.0 mb 0.00 in0.0 mm 0.00 in0.0 mm 0.02 in0.5 mm
01:55 AM 60.1°F15.6°C 56.6°F13.7°C 88% 4.5 mph SSW7.2 kmh SSW 17.2 mph27.7 kmh 29.53 in1000.0 mb 0.00 in0.0 mm 0.00 in0.0 mm 0.02 in0.5 mm
02:00 AM 59.9°F15.5°C 56.0°F13.3°C 87% 9.6 mph SSW15.4 kmh SSW 15.9 mph25.6 kmh 29.53 in1000.0 mb 0.00 in0.0 mm 0.00 in0.0 mm 0.02 in0.5 mm
02:05 AM 59.9°F15.5°C 56.0°F13.3°C 87% 10.3 mph SSW16.6 kmh SSW 14.1 mph22.7 kmh 29.52 in999.7 mb 0.00 in0.0 mm 0.00 in0.0 mm 0.02 in0.5 mm
02:10 AM 59.7°F15.4°C 55.9°F13.3°C 87% 18.3 mph SSW29.5 kmh SSW 18.3 mph29.5 kmh 29.52 in999.7 mb 0.00 in0.0 mm 0.00 in0.0 mm 0.02 in0.5 mm
02:15 AM 59.7°F15.4°C 55.9°F13.3°C 87% 9.4 mph SSW15.1 kmh SSW 18.3 mph29.5 kmh 29.52 in999.7 mb 0.00 in0.0 mm 0.00 in0.0 mm 0.02 in0.5 mm
02:20 AM 59.5°F15.3°C 56.0°F13.3°C 88% 10.7 mph SSW17.2 kmh SSW 16.8 mph27.0 kmh 29.51 in999.3 mb 0.00 in0.0 mm 0.00 in0.0 mm 0.02 in0.5 mm
02:25 AM 59.5°F15.3°C 56.0°F13.3°C 88% 8.5 mph SSW13.7 kmh SSW 16.8 mph27.0 kmh 29.51 in999.3 mb 0.00 in0.0 mm 0.00 in0.0 mm 0.02 in0.5 mm
02:30 AM 59.7°F15.4°C 56.5°F13.6°C 89% 9.2 mph SSW14.8 kmh SSW 17.0 mph27.4 kmh 29.51 in999.3 mb 0.00 in0.0 mm 0.00 in0.0 mm 0.02 in0.5 mm
02:35 AM 59.7°F15.4°C 56.5°F13.6°C 89% 8.7 mph SSW14.0 kmh SSW 17.0 mph27.4 kmh 29.51 in999.3 mb 0.00 in0.0 mm 0.00 in0.0 mm 0.02 in0.5 mm
02:40 AM 59.7°F15.4°C 56.5°F13.6°C 89% 6.9 mph SSW11.1 kmh SSW 15.4 mph24.8 kmh 29.50 in999.0 mb 0.00 in0.0 mm 0.00 in0.0 mm 0.02 in0.5 mm
02:45 AM 59.7°F15.4°C 56.5°F13.6°C 89% 8.7 mph SSW14.0 kmh SSW 14.3 mph23.0 kmh 29.50 in999.0 mb 0.00 in0.0 mm 0.00 in0.0 mm 0.02 in0.5 mm
02:50 AM 59.9°F15.5°C 56.7°F13.7°C 89% 8.5 mph SSW13.7 kmh SSW 14.3 mph23.0 kmh 29.49 in998.6 mb 0.00 in0.0 mm 0.00 in0.0 mm 0.02 in0.5 mm
02:55 AM 59.9°F15.5°C 56.7°F13.7°C 89% 6.7 mph SSW10.8 kmh SSW 14.1 mph22.7 kmh 29.49 in998.6 mb 0.00 in0.0 mm 0.00 in0.0 mm 0.02 in0.5 mm
03:00 AM 60.1°F15.6°C 56.9°F13.8°C 89% 6.9 mph SSW11.1 kmh SSW 14.5 mph23.3 kmh 29.50 in999.0 mb 0.00 in0.0 mm 0.00 in0.0 mm 0.02 in0.5 mm
03:05 AM 60.3°F15.7°C 57.1°F13.9°C 89% 5.1 mph SSW8.2 kmh SSW 10.3 mph16.6 kmh 29.49 in998.6 mb 0.00 in0.0 mm 0.00 in0.0 mm 0.02 in0.5 mm
03:10 AM 60.4°F15.8°C 57.2°F14.0°C 89% 3.1 mph SSW5.0 kmh SSW 12.1 mph19.5 kmh 29.49 in998.6 mb 0.00 in0.0 mm 0.00 in0.0 mm 0.02 in0.5 mm
03:15 AM 60.4°F15.8°C 57.2°F14.0°C 89% 6.3 mph SSW10.1 kmh SSW 12.1 mph19.5 kmh 29.49 in998.6 mb 0.00 in0.0 mm 0.00 in0.0 mm 0.02 in0.5 mm
03:20 AM 60.4°F15.8°C 57.2°F14.0°C 89% 8.5 mph SSW13.7 kmh SSW 13.0 mph20.9 kmh 29.49 in998.6 mb 0.00 in0.0 mm 0.00 in0.0 mm 0.02 in0.5 mm
03:25 AM 60.6°F15.9°C 57.4°F14.1°C 89% 2.2 mph S3.5 kmh S 13.0 mph20.9 kmh 29.48 in998.3 mb 0.00 in0.0 mm 0.00 in0.0 mm 0.02 in0.5 mm
03:30 AM 60.6°F15.9°C 57.4°F14.1°C 89% 9.8 mph S15.8 kmh S 13.4 mph21.6 kmh 29.48 in998.3 mb 0.00 in0.0 mm 0.00 in0.0 mm 0.02 in0.5 mm
03:35 AM 60.6°F15.9°C 57.1°F13.9°C 88% 10.5 mph SSW16.9 kmh SSW 18.3 mph29.5 kmh 29.48 in998.3 mb 0.00 in0.0 mm 0.00 in0.0 mm 0.02 in0.5 mm
03:40 AM 61.0°F16.1°C 57.4°F14.1°C 88% 11.2 mph SSW18.0 kmh SSW 18.3 mph29.5 kmh 29.48 in998.3 mb 0.02 in0.5 mm 0.24 in6.1 mm 0.04 in1.0 mm
03:45 AM 60.8°F16.0°C 57.3°F14.1°C 88% 5.6 mph S9.0 kmh S 15.7 mph25.3 kmh 29.47 in998.0 mb 0.02 in0.5 mm 0.00 in0.0 mm 0.04 in1.0 mm
03:50 AM 60.6°F15.9°C 57.4°F14.1°C 89% 7.4 mph SSW11.9 kmh SSW 15.7 mph25.3 kmh 29.47 in998.0 mb 0.02 in0.5 mm 0.00 in0.0 mm 0.04 in1.0 mm
03:55 AM 60.6°F15.9°C 57.4°F14.1°C 89% 8.9 mph SSW14.3 kmh SSW 12.5 mph20.1 kmh 29.47 in998.0 mb 0.04 in1.0 mm 0.24 in6.1 mm 0.06 in1.5 mm
04:00 AM 60.6°F15.9°C 57.4°F14.1°C 89% 6.5 mph S10.5 kmh S 12.5 mph20.1 kmh 29.46 in997.6 mb 0.04 in1.0 mm 0.00 in0.0 mm 0.06 in1.5 mm
04:05 AM 60.6°F15.9°C 57.1°F13.9°C 88% 3.6 mph SW5.8 kmh SW 13.6 mph21.9 kmh 29.46 in997.6 mb 0.04 in1.0 mm 0.00 in0.0 mm 0.06 in1.5 mm
04:10 AM 60.6°F15.9°C 57.1°F13.9°C 88% 5.8 mph SSW9.3 kmh SSW 15.9 mph25.6 kmh 29.45 in997.3 mb 0.04 in1.0 mm 0.00 in0.0 mm 0.06 in1.5 mm
04:15 AM 61.0°F16.1°C 57.4°F14.1°C 88% 12.5 mph SSW20.1 kmh SSW 19.0 mph30.6 kmh 29.46 in997.6 mb 0.04 in1.0 mm 0.00 in0.0 mm 0.06 in1.5 mm
04:20 AM 61.0°F16.1°C 57.4°F14.1°C 88% 10.3 mph SSW16.6 kmh SSW 19.0 mph30.6 kmh 29.45 in997.3 mb 0.04 in1.0 mm 0.00 in0.0 mm 0.06 in1.5 mm
04:25 AM 61.0°F16.1°C 57.4°F14.1°C 88% 6.7 mph S10.8 kmh S 13.9 mph22.4 kmh 29.46 in997.6 mb 0.04 in1.0 mm 0.00 in0.0 mm 0.06 in1.5 mm
04:30 AM 61.0°F16.1°C 57.4°F14.1°C 88% 3.8 mph SSW6.1 kmh SSW 13.2 mph21.2 kmh 29.45 in997.3 mb 0.02 in0.5 mm 0.00 in0.0 mm 0.06 in1.5 mm
04:35 AM 60.8°F16.0°C 57.3°F14.1°C 88% 3.8 mph SSW6.1 kmh SSW 12.3 mph19.8 kmh 29.45 in997.3 mb 0.02 in0.5 mm 0.00 in0.0 mm 0.06 in1.5 mm
04:40 AM 60.6°F15.9°C 57.1°F13.9°C 88% 8.1 mph SSW13.0 kmh SSW 15.0 mph24.1 kmh 29.45 in997.3 mb 0.02 in0.5 mm 0.00 in0.0 mm 0.06 in1.5 mm
04:45 AM 60.6°F15.9°C 56.8°F13.8°C 87% 9.8 mph SSW15.8 kmh SSW 16.1 mph25.9 kmh 29.44 in997.0 mb 0.02 in0.5 mm 0.00 in0.0 mm 0.06 in1.5 mm
04:50 AM 60.6°F15.9°C 56.8°F13.8°C 87% 8.5 mph S13.7 kmh S 16.1 mph25.9 kmh 29.44 in997.0 mb 0.00 in0.0 mm 0.00 in0.0 mm 0.06 in1.5 mm
04:55 AM 60.6°F15.9°C 56.8°F13.8°C 87% 8.3 mph S13.4 kmh S 13.4 mph21.6 kmh 29.44 in997.0 mb 0.00 in0.0 mm 0.00 in0.0 mm 0.06 in1.5 mm
05:00 AM 60.6°F15.9°C 57.1°F13.9°C 88% 6.7 mph SSW10.8 kmh SSW 12.3 mph19.8 kmh 29.44 in997.0 mb 0.00 in0.0 mm 0.00 in0.0 mm 0.06 in1.5 mm
05:05 AM 60.6°F15.9°C 57.1°F13.9°C 88% 2.9 mph SSW4.7 kmh SSW 15.2 mph24.5 kmh 29.44 in997.0 mb 0.00 in0.0 mm 0.00 in0.0 mm 0.06 in1.5 mm
05:10 AM 60.6°F15.9°C 57.1°F13.9°C 88% 9.2 mph SSW14.8 kmh SSW 16.6 mph26.7 kmh 29.44 in997.0 mb 0.00 in0.0 mm 0.00 in0.0 mm 0.06 in1.5 mm
05:15 AM 60.6°F15.9°C 57.1°F13.9°C 88% 11.9 mph S19.2 kmh S 17.9 mph28.8 kmh 29.44 in997.0 mb 0.00 in0.0 mm 0.00 in0.0 mm 0.06 in1.5 mm
05:20 AM 61.0°F16.1°C 57.4°F14.1°C 88% 5.1 mph SSW8.2 kmh SSW 17.9 mph28.8 kmh 29.44 in997.0 mb 0.00 in0.0 mm 0.00 in0.0 mm 0.06 in1.5 mm
05:25 AM 60.8°F16.0°C 57.3°F14.1°C 88% 10.3 mph SSW16.6 kmh SSW 15.7 mph25.3 kmh 29.44 in997.0 mb 0.00 in0.0 mm 0.00 in0.0 mm 0.06 in1.5 mm
05:30 AM 60.6°F15.9°C 56.8°F13.8°C 87% 12.5 mph SSW20.1 kmh SSW 14.8 mph23.8 kmh 29.44 in997.0 mb 0.00 in0.0 mm 0.00 in0.0 mm 0.06 in1.5 mm
05:35 AM 60.6°F15.9°C 56.8°F13.8°C 87% 6.9 mph SSW11.1 kmh SSW 15.9 mph25.6 kmh 29.44 in997.0 mb 0.00 in0.0 mm 0.00 in0.0 mm 0.06 in1.5 mm
05:40 AM 60.6°F15.9°C 56.8°F13.8°C 87% 9.2 mph SSW14.8 kmh SSW 15.9 mph25.6 kmh 29.44 in997.0 mb 0.00 in0.0 mm 0.00 in0.0 mm 0.06 in1.5 mm
05:45 AM 60.4°F15.8°C 56.6°F13.7°C 87% 8.1 mph SSW13.0 kmh SSW 14.3 mph23.0 kmh 29.44 in997.0 mb 0.00 in0.0 mm 0.00 in0.0 mm 0.06 in1.5 mm
05:50 AM 60.6°F15.9°C 56.8°F13.8°C 87% 6.5 mph SSW10.5 kmh SSW 13.6 mph21.9 kmh 29.44 in997.0 mb 0.00 in0.0 mm 0.00 in0.0 mm 0.06 in1.5 mm
05:55 AM 60.6°F15.9°C 57.1°F13.9°C 88% 10.1 mph S16.3 kmh S 17.7 mph28.5 kmh 29.44 in997.0 mb 0.00 in0.0 mm 0.00 in0.0 mm 0.06 in1.5 mm
06:00 AM 60.6°F15.9°C 57.1°F13.9°C 88% 7.4 mph SSW11.9 kmh SSW 17.7 mph28.5 kmh 29.44 in997.0 mb 0.00 in0.0 mm 0.00 in0.0 mm 0.06 in1.5 mm
06:05 AM 60.6°F15.9°C 57.1°F13.9°C 88% 11.0 mph SSW17.7 kmh SSW 15.4 mph24.8 kmh 29.44 in997.0 mb 0.00 in0.0 mm 0.00 in0.0 mm 0.06 in1.5 mm
06:10 AM 60.6°F15.9°C 56.8°F13.8°C 87% 15.0 mph SSW24.1 kmh SSW 17.2 mph27.7 kmh 29.44 in997.0 mb 0.00 in0.0 mm 0.00 in0.0 mm 0.06 in1.5 mm
06:15 AM 60.6°F15.9°C 56.8°F13.8°C 87% 6.9 mph SSW11.1 kmh SSW 17.2 mph27.7 kmh 29.44 in997.0 mb 0.00 in0.0 mm 0.00 in0.0 mm 0.06 in1.5 mm
06:20 AM 60.6°F15.9°C 56.8°F13.8°C 87% 9.6 mph S15.4 kmh S 14.8 mph23.8 kmh 29.43 in996.6 mb 0.00 in0.0 mm 0.00 in0.0 mm 0.06 in1.5 mm
06:25 AM 60.6°F15.9°C 56.8°F13.8°C 87% 3.6 mph S5.8 kmh S 14.3 mph23.0 kmh 29.44 in997.0 mb 0.00 in0.0 mm 0.00 in0.0 mm 0.06 in1.5 mm
06:30 AM 60.4°F15.8°C 56.6°F13.7°C 87% 8.1 mph S13.0 kmh S 14.3 mph23.0 kmh 29.44 in997.0 mb 0.00 in0.0 mm 0.00 in0.0 mm 0.06 in1.5 mm
06:35 AM 60.4°F15.8°C 56.6°F13.7°C 87% 11.9 mph S19.2 kmh S 14.3 mph23.0 kmh 29.44 in997.0 mb 0.00 in0.0 mm 0.00 in0.0 mm 0.06 in1.5 mm
06:40 AM 60.4°F15.8°C 56.6°F13.7°C 87% 9.2 mph SSW14.8 kmh SSW 16.6 mph26.7 kmh 29.44 in997.0 mb 0.00 in0.0 mm 0.00 in0.0 mm 0.06 in1.5 mm
06:45 AM 60.4°F15.8°C 56.6°F13.7°C 87% 14.5 mph SSW23.3 kmh SSW 19.9 mph32.0 kmh 29.43 in996.6 mb 0.00 in0.0 mm 0.00 in0.0 mm 0.06 in1.5 mm
06:50 AM 60.4°F15.8°C 56.6°F13.7°C 87% 10.7 mph SSW17.2 kmh SSW 19.9 mph32.0 kmh 29.44 in997.0 mb 0.00 in0.0 mm 0.00 in0.0 mm 0.06 in1.5 mm
06:55 AM 60.1°F15.6°C 56.6°F13.7°C 88% 13.0 mph SSW20.9 kmh SSW 16.3 mph26.2 kmh 29.44 in997.0 mb 0.00 in0.0 mm 0.00 in0.0 mm 0.06 in1.5 mm
07:00 AM 60.1°F15.6°C 56.6°F13.7°C 88% 12.1 mph SSW19.5 kmh SSW 18.1 mph29.1 kmh 29.43 in996.6 mb 0.00 in0.0 mm 0.00 in0.0 mm 0.06 in1.5 mm
07:05 AM 60.1°F15.6°C 56.2°F13.4°C 87% 14.1 mph SSW22.7 kmh SSW 19.2 mph30.9 kmh 29.43 in996.6 mb 0.00 in0.0 mm 0.00 in0.0 mm 0.06 in1.5 mm
07:10 AM 60.3°F15.7°C 56.4°F13.6°C 87% 11.2 mph SSW18.0 kmh SSW 19.2 mph30.9 kmh 29.43 in996.6 mb 0.00 in0.0 mm 0.00 in0.0 mm 0.06 in1.5 mm
07:15 AM 60.4°F15.8°C 56.9°F13.8°C 88% 8.7 mph SSW14.0 kmh SSW 16.3 mph26.2 kmh 29.43 in996.6 mb 0.00 in0.0 mm 0.00 in0.0 mm 0.06 in1.5 mm
07:20 AM 60.4°F15.8°C 56.6°F13.7°C 87% 9.8 mph SSW15.8 kmh SSW 15.4 mph24.8 kmh 29.43 in996.6 mb 0.00 in0.0 mm 0.00 in0.0 mm 0.06 in1.5 mm
07:25 AM 60.4°F15.8°C 56.6°F13.7°C 87% 1.6 mph SW2.6 kmh SW 15.4 mph24.8 kmh 29.44 in997.0 mb 0.00 in0.0 mm 0.00 in0.0 mm 0.06 in1.5 mm
07:30 AM 60.4°F15.8°C 56.6°F13.7°C 87% 8.9 mph SW14.3 kmh SW 14.3 mph23.0 kmh 29.44 in997.0 mb 0.00 in0.0 mm 0.00 in0.0 mm 0.06 in1.5 mm
07:35 AM 60.4°F15.8°C 56.6°F13.7°C 87% 5.1 mph SSW8.2 kmh SSW 13.0 mph20.9 kmh 29.44 in997.0 mb 0.00 in0.0 mm 0.00 in0.0 mm 0.06 in1.5 mm
07:40 AM 60.4°F15.8°C 56.6°F13.7°C 87% 2.5 mph SSW4.0 kmh SSW 13.0 mph20.9 kmh 29.44 in997.0 mb 0.00 in0.0 mm 0.00 in0.0 mm 0.06 in1.5 mm
07:45 AM 60.4°F15.8°C 56.6°F13.7°C 87% 1.6 mph SSW2.6 kmh SSW 9.2 mph14.8 kmh 29.43 in996.6 mb 0.00 in0.0 mm 0.00 in0.0 mm 0.06 in1.5 mm
07:50 AM 60.4°F15.8°C 56.6°F13.7°C 87% 7.6 mph SW12.2 kmh SW 9.2 mph14.8 kmh 29.43 in996.6 mb 0.00 in0.0 mm 0.00 in0.0 mm 0.06 in1.5 mm
07:55 AM 60.4°F15.8°C 56.6°F13.7°C 87% 2.9 mph SW4.7 kmh SW 11.9 mph19.2 kmh 29.43 in996.6 mb 0.00 in0.0 mm 0.00 in0.0 mm 0.06 in1.5 mm
08:00 AM 60.4°F15.8°C 56.6°F13.7°C 87% 4.0 mph SW6.4 kmh SW 11.9 mph19.2 kmh 29.43 in996.6 mb 0.02 in0.5 mm 0.02 in0.5 mm 0.08 in2.0 mm
08:05 AM 60.4°F15.8°C 56.6°F13.7°C 87% 8.9 mph SW14.3 kmh SW 18.1 mph29.1 kmh 29.43 in996.6 mb 0.02 in0.5 mm 0.00 in0.0 mm 0.08 in2.0 mm
08:10 AM 60.4°F15.8°C 56.6°F13.7°C 87% 6.0 mph SW9.7 kmh SW 18.1 mph29.1 kmh 29.43 in996.6 mb 0.02 in0.5 mm 0.00 in0.0 mm 0.08 in2.0 mm
08:15 AM 60.4°F15.8°C 56.6°F13.7°C 87% 8.9 mph SW14.3 kmh SW 14.3 mph23.0 kmh 29.44 in997.0 mb 0.02 in0.5 mm 0.00 in0.0 mm 0.08 in2.0 mm
08:20 AM 60.4°F15.8°C 56.6°F13.7°C 87% 8.7 mph SSW14.0 kmh SSW 14.5 mph23.3 kmh 29.43 in996.6 mb 0.02 in0.5 mm 0.00 in0.0 mm 0.08 in2.0 mm
08:25 AM 60.4°F15.8°C 56.6°F13.7°C 87% 4.9 mph SSW7.9 kmh SSW 14.5 mph23.3 kmh 29.43 in996.6 mb 0.02 in0.5 mm 0.00 in0.0 mm 0.08 in2.0 mm
08:30 AM 60.3°F15.7°C 56.4°F13.6°C 87% 7.2 mph SSW11.6 kmh SSW 13.0 mph20.9 kmh 29.43 in996.6 mb 0.02 in0.5 mm 0.00 in0.0 mm 0.08 in2.0 mm
08:35 AM 60.4°F15.8°C 56.6°F13.7°C 87% 6.7 mph SSW10.8 kmh SSW 13.0 mph20.9 kmh 29.43 in996.6 mb 0.02 in0.5 mm 0.00 in0.0 mm 0.08 in2.0 mm
08:40 AM 60.4°F15.8°C 56.6°F13.7°C 87% 2.0 mph SSW3.2 kmh SSW 10.3 mph16.6 kmh 29.43 in996.6 mb 0.02 in0.5 mm 0.00 in0.0 mm 0.08 in2.0 mm
08:45 AM 60.4°F15.8°C 56.6°F13.7°C 87% Calm Calm 10.3 mph16.6 kmh 29.43 in996.6 mb 0.02 in0.5 mm 0.00 in0.0 mm 0.08 in2.0 mm
08:50 AM 60.6°F15.9°C 56.8°F13.8°C 87% 4.5 mph ESE7.2 kmh ESE 5.4 mph8.7 kmh 29.43 in996.6 mb 0.02 in0.5 mm 0.00 in0.0 mm 0.08 in2.0 mm
08:55 AM 60.6°F15.9°C 56.8°F13.8°C 87% 1.8 mph E2.9 kmh E 5.4 mph8.7 kmh 29.43 in996.6 mb 0.02 in0.5 mm 0.00 in0.0 mm 0.08 in2.0 mm
09:00 AM 60.6°F15.9°C 56.8°F13.8°C 87% 3.6 mph S5.8 kmh S 9.2 mph14.8 kmh 29.43 in996.6 mb 0.00 in0.0 mm 0.00 in0.0 mm 0.08 in2.0 mm
09:05 AM 60.6°F15.9°C 57.1°F13.9°C 88% 4.0 mph S6.4 kmh S 9.2 mph14.8 kmh 29.43 in996.6 mb 0.02 in0.5 mm 0.24 in6.1 mm 0.10 in2.5 mm
09:10 AM 60.6°F15.9°C 57.1°F13.9°C 88% 2.2 mph SSE3.5 kmh SSE 6.0 mph9.7 kmh 29.43 in996.6 mb 0.04 in1.0 mm 0.24 in6.1 mm 0.12 in3.0 mm
09:15 AM 60.6°F15.9°C 57.1°F13.9°C 88% 2.5 mph NNE4.0 kmh NNE 4.5 mph7.2 kmh 29.43 in996.6 mb 0.06 in1.5 mm 0.24 in6.1 mm 0.14 in3.6 mm
09:20 AM 60.4°F15.8°C 56.9°F13.8°C 88% 1.3 mph N2.1 kmh N 6.0 mph9.7 kmh 29.43 in996.6 mb 0.08 in2.0 mm 0.24 in6.1 mm 0.16 in4.1 mm
09:25 AM 60.1°F15.6°C 56.6°F13.7°C 88% 6.3 mph SSW10.1 kmh SSW 10.7 mph17.2 kmh 29.43 in996.6 mb 0.08 in2.0 mm 0.00 in0.0 mm 0.16 in4.1 mm
09:30 AM 60.4°F15.8°C 56.9°F13.8°C 88% 9.6 mph SSW15.4 kmh SSW 12.1 mph19.5 kmh 29.44 in997.0 mb 0.08 in2.0 mm 0.00 in0.0 mm 0.16 in4.1 mm
09:35 AM 60.4°F15.8°C 56.9°F13.8°C 88% 7.8 mph SSW12.6 kmh SSW 12.1 mph19.5 kmh 29.44 in997.0 mb 0.10 in2.5 mm 0.24 in6.1 mm 0.18 in4.6 mm
09:40 AM 60.4°F15.8°C 56.6°F13.7°C 87% 3.4 mph SSW5.5 kmh SSW 13.6 mph21.9 kmh 29.44 in997.0 mb 0.10 in2.5 mm 0.00 in0.0 mm 0.18 in4.6 mm
09:45 AM 60.4°F15.8°C 56.6°F13.7°C 87% 6.0 mph SSW9.7 kmh SSW 13.6 mph21.9 kmh 29.44 in997.0 mb 0.16 in4.1 mm 0.72 in18.3 mm 0.24 in6.1 mm
09:50 AM 59.9°F15.5°C 56.0°F13.3°C 87% 2.7 mph SSW4.3 kmh SSW 11.9 mph19.2 kmh 29.44 in997.0 mb 0.19 in4.8 mm 0.36 in9.1 mm 0.26 in6.6 mm
09:55 AM 60.1°F15.6°C 56.2°F13.4°C 87% Calm Calm 14.3 mph23.0 kmh 29.44 in997.0 mb 0.19 in4.8 mm 0.00 in0.0 mm 0.26 in6.6 mm
10:00 AM 60.4°F15.8°C 56.9°F13.8°C 88% 7.6 mph SSW12.2 kmh SSW 14.3 mph23.0 kmh 29.44 in997.0 mb 0.19 in4.8 mm 0.00 in0.0 mm 0.29 in7.4 mm
10:05 AM 60.4°F15.8°C 56.9°F13.8°C 88% 3.8 mph SSW6.1 kmh SSW 13.0 mph20.9 kmh 29.44 in997.0 mb 0.20 in5.1 mm 0.12 in3.0 mm 0.31 in7.9 mm
10:10 AM 60.3°F15.7°C 56.7°F13.7°C 88% 6.0 mph SSW9.7 kmh SSW 14.3 mph23.0 kmh 29.44 in997.0 mb 0.19 in4.8 mm 0.00 in0.0 mm 0.31 in7.9 mm
10:15 AM 60.1°F15.6°C 56.2°F13.4°C 87% 4.0 mph SW6.4 kmh SW 17.7 mph28.5 kmh 29.44 in997.0 mb 0.17 in4.3 mm 0.00 in0.0 mm 0.31 in7.9 mm
10:20 AM 60.1°F15.6°C 56.2°F13.4°C 87% 4.5 mph SSW7.2 kmh SSW 17.7 mph28.5 kmh 29.44 in997.0 mb 0.17 in4.3 mm 0.00 in0.0 mm 0.33 in8.4 mm
10:25 AM 60.1°F15.6°C 56.2°F13.4°C 87% Calm Calm 10.3 mph16.6 kmh 29.44 in997.0 mb 0.17 in4.3 mm 0.00 in0.0 mm 0.33 in8.4 mm
10:30 AM 60.3°F15.7°C 56.7°F13.7°C 88% 8.9 mph S14.3 kmh S 10.5 mph16.9 kmh 29.44 in997.0 mb 0.19 in4.8 mm 0.24 in6.1 mm 0.35 in8.9 mm
10:35 AM 60.6°F15.9°C 57.1°F13.9°C 88% Calm Calm 15.4 mph24.8 kmh 29.44 in997.0 mb 0.16 in4.1 mm 0.00 in0.0 mm 0.35 in8.9 mm
10:40 AM 60.6°F15.9°C 57.1°F13.9°C 88% 1.8 mph S2.9 kmh S 15.4 mph24.8 kmh 29.44 in997.0 mb 0.16 in4.1 mm 0.00 in0.0 mm 0.35 in8.9 mm
10:45 AM 61.0°F16.1°C 57.4°F14.1°C 88% 4.5 mph SSW7.2 kmh SSW 11.0 mph17.7 kmh 29.44 in997.0 mb 0.10 in2.5 mm 0.00 in0.0 mm 0.35 in8.9 mm
10:50 AM 61.0°F16.1°C 57.4°F14.1°C 88% 1.3 mph SW2.1 kmh SW 11.0 mph17.7 kmh 29.44 in997.0 mb 0.10 in2.5 mm 0.00 in0.0 mm 0.37 in9.4 mm
10:55 AM 61.0°F16.1°C 57.4°F14.1°C 88% 8.1 mph SSE13.0 kmh SSE 8.1 mph13.0 kmh 29.44 in997.0 mb 0.12 in3.0 mm 0.24 in6.1 mm 0.39 in9.9 mm
11:00 AM 60.6°F15.9°C 57.1°F13.9°C 88% 4.5 mph S7.2 kmh S 15.9 mph25.6 kmh 29.44 in997.0 mb 0.16 in4.1 mm 0.04 in1.0 mm 0.45 in11.4 mm
11:05 AM 60.4°F15.8°C 56.9°F13.8°C 88% 2.7 mph SSW4.3 kmh SSW 15.9 mph25.6 kmh 29.44 in997.0 mb 0.20 in5.1 mm 0.48 in12.2 mm 0.51 in13.0 mm
11:10 AM 60.4°F15.8°C 56.6°F13.7°C 87% 11.4 mph S18.3 kmh S 17.4 mph28.0 kmh 29.44 in997.0 mb 0.20 in5.1 mm 0.00 in0.0 mm 0.51 in13.0 mm
11:15 AM 60.6°F15.9°C 56.8°F13.8°C 87% 6.0 mph SSW9.7 kmh SSW 19.0 mph30.6 kmh 29.44 in997.0 mb 0.20 in5.1 mm 0.00 in0.0 mm 0.51 in13.0 mm
11:20 AM 61.0°F16.1°C 57.1°F13.9°C 87% 10.5 mph SSW16.9 kmh SSW 19.0 mph30.6 kmh 29.44 in997.0 mb 0.19 in4.8 mm 0.00 in0.0 mm 0.51 in13.0 mm
11:25 AM 61.3°F16.3°C 57.5°F14.2°C 87% 2.9 mph SSW4.7 kmh SSW 16.3 mph26.2 kmh 29.44 in997.0 mb 0.19 in4.8 mm 0.00 in0.0 mm 0.51 in13.0 mm
11:30 AM 61.7°F16.5°C 57.8°F14.3°C 87% 4.5 mph SSW7.2 kmh SSW 9.8 mph15.8 kmh 29.44 in997.0 mb 0.16 in4.1 mm 0.00 in0.0 mm 0.51 in13.0 mm
11:35 AM 61.9°F16.6°C 57.7°F14.3°C 86% 13.9 mph SSW22.4 kmh SSW 16.8 mph27.0 kmh 29.44 in997.0 mb 0.16 in4.1 mm 0.00 in0.0 mm 0.51 in13.0 mm
11:40 AM 62.2°F16.8°C 57.7°F14.3°C 85% 4.0 mph SSW6.4 kmh SSW 16.8 mph27.0 kmh 29.44 in997.0 mb 0.16 in4.1 mm 0.00 in0.0 mm 0.51 in13.0 mm
11:45 AM 62.4°F16.9°C 57.8°F14.3°C 85% 10.3 mph SSW16.6 kmh SSW 16.8 mph27.0 kmh 29.44 in997.0 mb 0.16 in4.1 mm 0.00 in0.0 mm 0.51 in13.0 mm
11:50 AM 62.4°F16.9°C 57.8°F14.3°C 85% Calm Calm 11.4 mph18.3 kmh 29.44 in997.0 mb 0.14 in3.6 mm 0.00 in0.0 mm 0.51 in13.0 mm
11:55 AM 62.6°F17.0°C 58.0°F14.4°C 85% 3.1 mph S5.0 kmh S 12.8 mph20.6 kmh 29.43 in996.6 mb 0.12 in3.0 mm 0.00 in0.0 mm 0.51 in13.0 mm
12:00 PM 62.4°F16.9°C 57.8°F14.3°C 85% 6.0 mph SSW9.7 kmh SSW 13.4 mph21.6 kmh 29.42 in996.3 mb 0.04 in1.0 mm 0.00 in0.0 mm 0.51 in13.0 mm
12:05 PM 62.4°F16.9°C 58.2°F14.6°C 86% 8.5 mph SSW13.7 kmh SSW 13.4 mph21.6 kmh 29.41 in995.9 mb 0.02 in0.5 mm 0.00 in0.0 mm 0.53 in13.5 mm
12:10 PM 62.1°F16.7°C 57.8°F14.3°C 86% 2.0 mph SSW3.2 kmh SSW 14.3 mph23.0 kmh 29.41 in995.9 mb 0.04 in1.0 mm 0.24 in6.1 mm 0.55 in14.0 mm
12:15 PM 61.7°F16.5°C 57.5°F14.2°C 86% 6.3 mph S10.1 kmh S 14.3 mph23.0 kmh 29.41 in995.9 mb 0.10 in2.5 mm 0.72 in18.3 mm 0.61 in15.5 mm
12:20 PM 61.2°F16.2°C 57.0°F13.9°C 86% 10.3 mph S16.6 kmh S 13.6 mph21.9 kmh 29.40 in995.6 mb 0.19 in4.8 mm 1.08 in27.4 mm 0.69 in17.5 mm
12:25 PM 60.4°F15.8°C 56.6°F13.7°C 87% 10.3 mph SSW16.6 kmh SSW 13.6 mph21.9 kmh 29.40 in995.6 mb 0.26 in6.6 mm 0.84 in21.3 mm 0.77 in19.6 mm
12:30 PM 60.4°F15.8°C 57.2°F14.0°C 89% 6.3 mph SSW10.1 kmh SSW 16.8 mph27.0 kmh 29.40 in995.6 mb 0.31 in7.9 mm 0.60 in15.2 mm 0.82 in20.8 mm
12:35 PM 60.4°F15.8°C 57.2°F14.0°C 89% 3.8 mph S6.1 kmh S 16.8 mph27.0 kmh 29.39 in995.3 mb 0.41 in10.4 mm 1.20 in30.5 mm 0.92 in23.4 mm
12:40 PM 60.1°F15.6°C 56.9°F13.8°C 89% 1.1 mph S1.8 kmh S 11.2 mph18.0 kmh 29.39 in995.3 mb 0.45 in11.4 mm 0.48 in12.2 mm 0.96 in24.4 mm
12:45 PM 60.1°F15.6°C 56.9°F13.8°C 89% 1.1 mph S1.8 kmh S 11.2 mph18.0 kmh 29.39 in995.3 mb 0.47 in11.9 mm 0.24 in6.1 mm 0.98 in24.9 mm
12:50 PM 60.1°F15.6°C 56.9°F13.8°C 89% 6.5 mph S10.5 kmh S 6.5 mph10.5 kmh 29.39 in995.3 mb 0.51 in13.0 mm 0.48 in12.2 mm 1.02 in25.9 mm
12:55 PM 60.1°F15.6°C 56.9°F13.8°C 89% Calm Calm 6.9 mph11.1 kmh 29.39 in995.3 mb 0.51 in13.0 mm 0.00 in0.0 mm 1.02 in25.9 mm
01:00 PM 60.4°F15.8°C 57.2°F14.0°C 89% Calm Calm 6.9 mph11.1 kmh 29.40 in995.6 mb 0.57 in14.5 mm 0.07 in1.8 mm 1.08 in27.4 mm
01:05 PM 60.4°F15.8°C 57.6°F14.2°C 90% 2.0 mph NE3.2 kmh NE 6.7 mph10.8 kmh 29.39 in995.3 mb 0.65 in16.5 mm 0.96 in24.4 mm 1.18 in30.0 mm
01:10 PM 60.4°F15.8°C 57.6°F14.2°C 90% 6.5 mph SE10.5 kmh SE 14.5 mph23.3 kmh 29.38 in994.9 mb 0.67 in17.0 mm 0.24 in6.1 mm 1.22 in31.0 mm
01:15 PM 60.3°F15.7°C 57.4°F14.1°C 90% 3.6 mph S5.8 kmh S 14.5 mph23.3 kmh 29.38 in994.9 mb 0.63 in16.0 mm 0.00 in0.0 mm 1.24 in31.5 mm
01:20 PM 60.3°F15.7°C 57.4°F14.1°C 90% Calm Calm 12.3 mph19.8 kmh 29.36 in994.2 mb 0.55 in14.0 mm 0.00 in0.0 mm 1.26 in32.0 mm
01:25 PM 60.1°F15.6°C 57.2°F14.0°C 90% 10.5 mph S16.9 kmh S 15.9 mph25.6 kmh 29.36 in994.2 mb 0.55 in14.0 mm 0.00 in0.0 mm 1.33 in33.8 mm
01:30 PM 60.4°F15.8°C 57.6°F14.2°C 90% 6.9 mph S11.1 kmh S 15.9 mph25.6 kmh 29.36 in994.2 mb 0.51 in13.0 mm 0.00 in0.0 mm 1.33 in33.8 mm
01:35 PM 60.6°F15.9°C 57.7°F14.3°C 90% 10.3 mph SSW16.6 kmh SSW 15.9 mph25.6 kmh 29.36 in994.2 mb 0.47 in11.9 mm 0.00 in0.0 mm 1.39 in35.3 mm
01:40 PM 60.6°F15.9°C 57.7°F14.3°C 90% 4.0 mph SSW6.4 kmh SSW 15.9 mph25.6 kmh 29.36 in994.2 mb 0.43 in10.9 mm 0.00 in0.0 mm 1.39 in35.3 mm
01:45 PM 61.0°F16.1°C 57.8°F14.3°C 89% 5.1 mph SSW8.2 kmh SSW 16.8 mph27.0 kmh 29.36 in994.2 mb 0.41 in10.4 mm 0.00 in0.0 mm 1.39 in35.3 mm
01:50 PM 61.0°F16.1°C 57.8°F14.3°C 89% 0.9 mph S1.4 kmh S 16.8 mph27.0 kmh 29.36 in994.2 mb 0.37 in9.4 mm 0.00 in0.0 mm 1.39 in35.3 mm
01:55 PM 61.2°F16.2°C 57.6°F14.2°C 88% 10.5 mph S16.9 kmh S 14.5 mph23.3 kmh 29.35 in993.9 mb 0.39 in9.9 mm 0.24 in6.1 mm 1.41 in35.8 mm
02:00 PM 61.3°F16.3°C 57.8°F14.3°C 88% 6.0 mph S9.7 kmh S 20.4 mph32.8 kmh 29.36 in994.2 mb 0.31 in7.9 mm 0.00 in0.0 mm 1.43 in36.3 mm
02:05 PM 61.0°F16.1°C 57.4°F14.1°C 88% 11.2 mph S18.0 kmh S 20.4 mph32.8 kmh 29.36 in994.2 mb 0.26 in6.6 mm 0.00 in0.0 mm 1.45 in36.8 mm
02:10 PM 61.0°F16.1°C 57.1°F13.9°C 87% 15.0 mph S24.1 kmh S 21.0 mph33.8 kmh 29.34 in993.6 mb 0.22 in5.6 mm 0.00 in0.0 mm 1.45 in36.8 mm
02:15 PM 60.6°F15.9°C 56.8°F13.8°C 87% 8.9 mph S14.3 kmh S 21.0 mph33.8 kmh 29.35 in993.9 mb 0.22 in5.6 mm 0.00 in0.0 mm 1.47 in37.3 mm
02:20 PM 60.4°F15.8°C 56.6°F13.7°C 87% 13.4 mph SSW21.6 kmh SSW 25.1 mph40.4 kmh 29.36 in994.2 mb 0.20 in5.1 mm 0.00 in0.0 mm 1.47 in37.3 mm
02:25 PM 60.6°F15.9°C 56.8°F13.8°C 87% 10.3 mph SSW16.6 kmh SSW 25.1 mph40.4 kmh 29.35 in993.9 mb 0.14 in3.6 mm 0.00 in0.0 mm 1.47 in37.3 mm
02:30 PM 60.6°F15.9°C 56.4°F13.6°C 86% 9.2 mph S14.8 kmh S 16.3 mph26.2 kmh 29.34 in993.6 mb 0.14 in3.6 mm 0.00 in0.0 mm 1.47 in37.3 mm
02:35 PM 60.6°F15.9°C 56.8°F13.8°C 87% 3.1 mph S5.0 kmh S 19.7 mph31.7 kmh 29.36 in994.2 mb 0.10 in2.5 mm 0.00 in0.0 mm 1.49 in37.8 mm
02:40 PM 59.7°F15.4°C 54.6°F12.6°C 83% 11.9 mph S19.2 kmh S 29.5 mph47.5 kmh 29.36 in994.2 mb 0.12 in3.0 mm 0.24 in6.1 mm 1.51 in38.4 mm
02:45 PM 58.6°F14.8°C 54.1°F12.3°C 85% 11.9 mph S19.2 kmh S 29.5 mph47.5 kmh 29.36 in994.2 mb 0.14 in3.6 mm 0.24 in6.1 mm 1.53 in38.9 mm
02:50 PM 57.7°F14.3°C 53.6°F12.0°C 86% 9.2 mph S14.8 kmh S 23.3 mph37.5 kmh 29.36 in994.2 mb 0.14 in3.6 mm 0.00 in0.0 mm 1.53 in38.9 mm
02:55 PM 57.4°F14.1°C 53.2°F11.8°C 86% 14.3 mph S23.0 kmh S 22.4 mph36.0 kmh 29.36 in994.2 mb 0.12 in3.0 mm 0.00 in0.0 mm 1.53 in38.9 mm
03:00 PM 57.2°F14.0°C 53.0°F11.7°C 86% 9.8 mph S15.8 kmh S 22.4 mph36.0 kmh 29.36 in994.2 mb 0.10 in2.5 mm 0.00 in0.0 mm 1.53 in38.9 mm
03:05 PM 57.0°F13.9°C 52.8°F11.6°C 86% 11.4 mph S18.3 kmh S 19.5 mph31.4 kmh 29.36 in994.2 mb 0.08 in2.0 mm 0.00 in0.0 mm 1.53 in38.9 mm
03:10 PM 57.0°F13.9°C 52.8°F11.6°C 86% 9.6 mph S15.4 kmh S 20.6 mph33.2 kmh 29.36 in994.2 mb 0.08 in2.0 mm 0.00 in0.0 mm 1.53 in38.9 mm
03:15 PM 57.4°F14.1°C 53.2°F11.8°C 86% 11.4 mph S18.3 kmh S 20.8 mph33.5 kmh 29.36 in994.2 mb 0.08 in2.0 mm 0.00 in0.0 mm 1.55 in39.4 mm
03:20 PM 57.2°F14.0°C 53.0°F11.7°C 86% 22.6 mph SSW36.4 kmh SSW 22.6 mph36.4 kmh 29.36 in994.2 mb 0.08 in2.0 mm 0.00 in0.0 mm 1.55 in39.4 mm
03:25 PM 57.0°F13.9°C 53.2°F11.8°C 87% 9.8 mph SSW15.8 kmh SSW 24.2 mph38.9 kmh 29.36 in994.2 mb 0.10 in2.5 mm 0.24 in6.1 mm 1.57 in39.9 mm
03:30 PM 57.0°F13.9°C 53.2°F11.8°C 87% 11.6 mph SSW18.7 kmh SSW 24.2 mph38.9 kmh 29.35 in993.9 mb 0.10 in2.5 mm 0.00 in0.0 mm 1.57 in39.9 mm
03:35 PM 57.0°F13.9°C 53.2°F11.8°C 87% 13.9 mph S22.4 kmh S 23.3 mph37.5 kmh 29.35 in993.9 mb 0.08 in2.0 mm 0.00 in0.0 mm 1.57 in39.9 mm
03:40 PM 57.0°F13.9°C 53.2°F11.8°C 87% 8.1 mph S13.0 kmh S 21.0 mph33.8 kmh 29.35 in993.9 mb 0.06 in1.5 mm 0.00 in0.0 mm 1.57 in39.9 mm
03:45 PM 57.0°F13.9°C 53.2°F11.8°C 87% 19.7 mph SSW31.7 kmh SSW 25.1 mph40.4 kmh 29.35 in993.9 mb 0.06 in1.5 mm 0.00 in0.0 mm 1.59 in40.4 mm
03:50 PM 57.0°F13.9°C 53.2°F11.8°C 87% 17.4 mph SSW28.0 kmh SSW 25.1 mph40.4 kmh 29.35 in993.9 mb 0.06 in1.5 mm 0.00 in0.0 mm 1.59 in40.4 mm
03:55 PM 57.4°F14.1°C 53.9°F12.2°C 88% 10.5 mph SSW16.9 kmh SSW 21.0 mph33.8 kmh 29.34 in993.6 mb 0.06 in1.5 mm 0.00 in0.0 mm 1.59 in40.4 mm
04:00 PM 57.4°F14.1°C 53.9°F12.2°C 88% 6.3 mph SSW10.1 kmh SSW 18.1 mph29.1 kmh 29.34 in993.6 mb 0.06 in1.5 mm 0.00 in0.0 mm 1.59 in40.4 mm
04:05 PM 57.4°F14.1°C 54.2°F12.3°C 89% 12.1 mph SSW19.5 kmh SSW 17.7 mph28.5 kmh 29.34 in993.6 mb 0.06 in1.5 mm 0.00 in0.0 mm 1.59 in40.4 mm
04:10 PM 57.4°F14.1°C 54.2°F12.3°C 89% 13.0 mph SSW20.9 kmh SSW 19.0 mph30.6 kmh 29.34 in993.6 mb 0.06 in1.5 mm 0.00 in0.0 mm 1.59 in40.4 mm
04:15 PM 57.4°F14.1°C 54.2°F12.3°C 89% 14.3 mph SSW23.0 kmh SSW 20.1 mph32.3 kmh 29.35 in993.9 mb 0.04 in1.0 mm 0.00 in0.0 mm 1.59 in40.4 mm
04:20 PM 57.4°F14.1°C 54.2°F12.3°C 89% 11.0 mph SSW17.7 kmh SSW 20.1 mph32.3 kmh 29.35 in993.9 mb 0.04 in1.0 mm 0.00 in0.0 mm 1.59 in40.4 mm
04:25 PM 57.4°F14.1°C 54.2°F12.3°C 89% 5.1 mph S8.2 kmh S 18.8 mph30.3 kmh 29.35 in993.9 mb 0.02 in0.5 mm 0.00 in0.0 mm 1.59 in40.4 mm
04:30 PM 57.6°F14.2°C 54.4°F12.4°C 89% 5.8 mph S9.3 kmh S 12.1 mph19.5 kmh 29.35 in993.9 mb 0.02 in0.5 mm 0.00 in0.0 mm 1.59 in40.4 mm
04:35 PM 57.7°F14.3°C 54.5°F12.5°C 89% 1.3 mph S2.1 kmh S 11.9 mph19.2 kmh 29.35 in993.9 mb 0.02 in0.5 mm 0.00 in0.0 mm 1.59 in40.4 mm
04:40 PM 57.6°F14.2°C 54.4°F12.4°C 89% 15.0 mph ENE24.1 kmh ENE 17.9 mph28.8 kmh 29.37 in994.6 mb 0.06 in1.5 mm 0.48 in12.2 mm 1.63 in41.4 mm
04:45 PM 56.5°F13.6°C 53.0°F11.7°C 88% 2.0 mph NE3.2 kmh NE 19.2 mph30.9 kmh 29.37 in994.6 mb 0.06 in1.5 mm 0.00 in0.0 mm 1.65 in41.9 mm
04:50 PM 56.1°F13.4°C 52.9°F11.6°C 89% 6.9 mph NE11.1 kmh NE 19.2 mph30.9 kmh 29.37 in994.6 mb 0.08 in2.0 mm 0.24 in6.1 mm 1.67 in42.4 mm
04:55 PM 55.9°F13.3°C 52.4°F11.3°C 88% 11.6 mph NE18.7 kmh NE 16.1 mph25.9 kmh 29.37 in994.6 mb 0.08 in2.0 mm 0.00 in0.0 mm 1.67 in42.4 mm
05:00 PM 55.9°F13.3°C 52.4°F11.3°C 88% 5.1 mph NE8.2 kmh NE 19.5 mph31.4 kmh 29.38 in994.9 mb 0.08 in2.0 mm 0.00 in0.0 mm 1.67 in42.4 mm
05:05 PM 55.9°F13.3°C 52.4°F11.3°C 88% 6.5 mph NE10.5 kmh NE 19.5 mph31.4 kmh 29.38 in994.9 mb 0.08 in2.0 mm 0.00 in0.0 mm 1.67 in42.4 mm
05:10 PM 55.8°F13.2°C 52.2°F11.2°C 88% 13.6 mph ENE21.9 kmh ENE 15.4 mph24.8 kmh 29.38 in994.9 mb 0.08 in2.0 mm 0.00 in0.0 mm 1.67 in42.4 mm
05:15 PM 55.8°F13.2°C 52.2°F11.2°C 88% 6.5 mph NE10.5 kmh NE 19.7 mph31.7 kmh 29.39 in995.3 mb 0.08 in2.0 mm 0.00 in0.0 mm 1.67 in42.4 mm
05:20 PM 55.6°F13.1°C 52.1°F11.2°C 88% 17.0 mph NE27.4 kmh NE 22.4 mph36.0 kmh 29.40 in995.6 mb 0.10 in2.5 mm 0.24 in6.1 mm 1.69 in42.9 mm
05:25 PM 54.9°F12.7°C 50.1°F10.1°C 84% 17.9 mph NE28.8 kmh NE 27.1 mph43.6 kmh 29.41 in995.9 mb 0.10 in2.5 mm 0.00 in0.0 mm 1.69 in42.9 mm
05:30 PM 54.3°F12.4°C 49.9°F9.9°C 85% 8.3 mph NE13.4 kmh NE 27.1 mph43.6 kmh 29.41 in995.9 mb 0.10 in2.5 mm 0.00 in0.0 mm 1.69 in42.9 mm
05:35 PM 54.1°F12.3°C 50.0°F10.0°C 86% 5.4 mph NE8.7 kmh NE 20.1 mph32.3 kmh 29.40 in995.6 mb 0.10 in2.5 mm 0.00 in0.0 mm 1.69 in42.9 mm
05:40 PM 53.8°F12.1°C 49.7°F9.8°C 86% 5.6 mph NE9.0 kmh NE 18.8 mph30.3 kmh 29.40 in995.6 mb 0.06 in1.5 mm 0.00 in0.0 mm 1.71 in43.4 mm
05:45 PM 53.8°F12.1°C 49.7°F9.8°C 86% 15.2 mph ENE24.5 kmh ENE 17.4 mph28.0 kmh 29.41 in995.9 mb 0.06 in1.5 mm 0.00 in0.0 mm 1.71 in43.4 mm
05:50 PM 54.0°F12.2°C 49.5°F9.7°C 85% 8.3 mph E13.4 kmh E 18.3 mph29.5 kmh 29.41 in995.9 mb 0.04 in1.0 mm 0.00 in0.0 mm 1.71 in43.4 mm
05:55 PM 54.0°F12.2°C 49.5°F9.7°C 85% 8.5 mph E13.7 kmh E 18.3 mph29.5 kmh 29.41 in995.9 mb 0.04 in1.0 mm 0.00 in0.0 mm 1.71 in43.4 mm
06:00 PM 54.0°F12.2°C 49.5°F9.7°C 85% 7.6 mph E12.2 kmh E 16.1 mph25.9 kmh 29.41 in995.9 mb 0.04 in1.0 mm 0.00 in0.0 mm 1.71 in43.4 mm
06:05 PM 54.0°F12.2°C 49.5°F9.7°C 85% 5.8 mph ENE9.3 kmh ENE 17.4 mph28.0 kmh 29.42 in996.3 mb 0.04 in1.0 mm 0.00 in0.0 mm 1.71 in43.4 mm
06:10 PM 54.1°F12.3°C 50.0°F10.0°C 86% 6.5 mph NE10.5 kmh NE 17.4 mph28.0 kmh 29.42 in996.3 mb 0.04 in1.0 mm 0.00 in0.0 mm 1.71 in43.4 mm
06:15 PM 54.1°F12.3°C 50.0°F10.0°C 86% 4.5 mph ENE7.2 kmh ENE 13.4 mph21.6 kmh 29.44 in997.0 mb 0.04 in1.0 mm 0.00 in0.0 mm 1.71 in43.4 mm
06:20 PM 54.1°F12.3°C 50.0°F10.0°C 86% Calm Calm 13.9 mph22.4 kmh 29.43 in996.6 mb 0.02 in0.5 mm 0.00 in0.0 mm 1.71 in43.4 mm
06:25 PM 54.3°F12.4°C 50.2°F10.1°C 86% 11.2 mph NE18.0 kmh NE 13.9 mph22.4 kmh 29.45 in997.3 mb 0.02 in0.5 mm 0.00 in0.0 mm 1.71 in43.4 mm
06:30 PM 54.5°F12.5°C 50.4°F10.2°C 86% 12.8 mph NE20.6 kmh NE 17.7 mph28.5 kmh 29.46 in997.6 mb 0.02 in0.5 mm 0.00 in0.0 mm 1.71 in43.4 mm
06:35 PM 54.5°F12.5°C 50.4°F10.2°C 86% 4.9 mph NE7.9 kmh NE 17.7 mph28.5 kmh 29.46 in997.6 mb 0.02 in0.5 mm 0.00 in0.0 mm 1.71 in43.4 mm
06:40 PM 54.5°F12.5°C 50.4°F10.2°C 86% 10.5 mph NE16.9 kmh NE 16.3 mph26.2 kmh 29.46 in997.6 mb 0.00 in0.0 mm 0.00 in0.0 mm 1.71 in43.4 mm
06:45 PM 54.3°F12.4°C 50.5°F10.3°C 87% 6.3 mph NE10.1 kmh NE 17.2 mph27.7 kmh 29.46 in997.6 mb 0.02 in0.5 mm 0.24 in6.1 mm 1.73 in43.9 mm
06:50 PM 54.1°F12.3°C 50.0°F10.0°C 86% 4.0 mph NE6.4 kmh NE 17.2 mph27.7 kmh 29.45 in997.3 mb 0.02 in0.5 mm 0.00 in0.0 mm 1.73 in43.9 mm
06:55 PM 54.0°F12.2°C 49.5°F9.7°C 85% 13.4 mph NE21.6 kmh NE 20.1 mph32.3 kmh 29.45 in997.3 mb 0.02 in0.5 mm 0.00 in0.0 mm 1.73 in43.9 mm
07:00 PM 53.8°F12.1°C 49.4°F9.7°C 85% 0.7 mph NE1.1 kmh NE 20.1 mph32.3 kmh 29.45 in997.3 mb 0.02 in0.5 mm 0.00 in0.0 mm 1.73 in43.9 mm
07:05 PM 53.8°F12.1°C 49.4°F9.7°C 85% 2.5 mph ENE4.0 kmh ENE 14.8 mph23.8 kmh 29.45 in997.3 mb 0.02 in0.5 mm 0.00 in0.0 mm 1.73 in43.9 mm
07:10 PM 53.4°F11.9°C 49.3°F9.6°C 86% 1.8 mph SE2.9 kmh SE 7.2 mph11.6 kmh 29.44 in997.0 mb 0.02 in0.5 mm 0.00 in0.0 mm 1.73 in43.9 mm
07:15 PM 53.4°F11.9°C 49.3°F9.6°C 86% 1.1 mph SSE1.8 kmh SSE 7.2 mph11.6 kmh 29.44 in997.0 mb 0.02 in0.5 mm 0.00 in0.0 mm 1.73 in43.9 mm
07:20 PM 53.4°F11.9°C 49.0°F9.4°C 85% Calm Calm 5.4 mph8.7 kmh 29.43 in996.6 mb 0.02 in0.5 mm 0.00 in0.0 mm 1.73 in43.9 mm
07:25 PM 53.2°F11.8°C 48.8°F9.3°C 85% 6.9 mph WSW11.1 kmh WSW 11.2 mph18.0 kmh 29.43 in996.6 mb 0.02 in0.5 mm 0.00 in0.0 mm 1.73 in43.9 mm
07:30 PM 53.2°F11.8°C 47.9°F8.8°C 82% 13.2 mph SSW21.2 kmh SSW 19.0 mph30.6 kmh 29.40 in995.6 mb 0.02 in0.5 mm 0.00 in0.0 mm 1.73 in43.9 mm
07:35 PM 54.0°F12.2°C 48.0°F8.9°C 80% 17.7 mph S28.5 kmh S 20.6 mph33.2 kmh 29.39 in995.3 mb 0.02 in0.5 mm 0.00 in0.0 mm 1.73 in43.9 mm
07:40 PM 54.3°F12.4°C 48.3°F9.1°C 80% 10.3 mph S16.6 kmh S 21.7 mph34.9 kmh 29.39 in995.3 mb 0.02 in0.5 mm 0.00 in0.0 mm 1.73 in43.9 mm
07:45 PM 54.1°F12.3°C 48.5°F9.2°C 81% 12.8 mph SSW20.6 kmh SSW 21.7 mph34.9 kmh 29.40 in995.6 mb 0.00 in0.0 mm 0.00 in0.0 mm 1.73 in43.9 mm
07:50 PM 54.0°F12.2°C 48.0°F8.9°C 80% 8.3 mph SSW13.4 kmh SSW 21.0 mph33.8 kmh 29.41 in995.9 mb 0.00 in0.0 mm 0.00 in0.0 mm 1.73 in43.9 mm
07:55 PM 54.1°F12.3°C 47.8°F8.8°C 79% 11.6 mph S18.7 kmh S 14.5 mph23.3 kmh 29.42 in996.3 mb 0.00 in0.0 mm 0.00 in0.0 mm 1.73 in43.9 mm
08:00 PM 54.1°F12.3°C 48.1°F8.9°C 80% 2.0 mph S3.2 kmh S 14.5 mph23.3 kmh 29.44 in997.0 mb 0.00 in0.0 mm 0.00 in0.0 mm 1.73 in43.9 mm
08:05 PM 53.8°F12.1°C 47.8°F8.8°C 80% 3.4 mph S5.5 kmh S 13.2 mph21.2 kmh 29.44 in997.0 mb 0.00 in0.0 mm 0.00 in0.0 mm 1.73 in43.9 mm
08:10 PM 53.8°F12.1°C 48.1°F8.9°C 81% 2.5 mph SE4.0 kmh SE 10.5 mph16.9 kmh 29.44 in997.0 mb 0.00 in0.0 mm 0.00 in0.0 mm 1.73 in43.9 mm
08:15 PM 53.8°F12.1°C 48.1°F8.9°C 81% 2.9 mph SE4.7 kmh SE 10.1 mph16.3 kmh 29.44 in997.0 mb 0.00 in0.0 mm 0.00 in0.0 mm 1.73 in43.9 mm
08:20 PM 53.4°F11.9°C 47.8°F8.8°C 81% 15.7 mph S25.3 kmh S 16.1 mph25.9 kmh 29.44 in997.0 mb 0.00 in0.0 mm 0.00 in0.0 mm 1.73 in43.9 mm
08:25 PM 53.8°F12.1°C 48.1°F8.9°C 81% 17.7 mph S28.5 kmh S 17.7 mph28.5 kmh 29.44 in997.0 mb 0.00 in0.0 mm 0.00 in0.0 mm 1.73 in43.9 mm
08:30 PM 53.8°F12.1°C 48.1°F8.9°C 81% 11.0 mph S17.7 kmh S 23.9 mph38.5 kmh 29.44 in997.0 mb 0.00 in0.0 mm 0.00 in0.0 mm 1.73 in43.9 mm
08:35 PM 53.6°F12.0°C 48.0°F8.9°C 81% 3.8 mph S6.1 kmh S 23.9 mph38.5 kmh 29.44 in997.0 mb 0.00 in0.0 mm 0.00 in0.0 mm 1.73 in43.9 mm
08:40 PM 53.4°F11.9°C 47.8°F8.8°C 81% 2.2 mph SSW3.5 kmh SSW 21.3 mph34.3 kmh 29.44 in997.0 mb 0.00 in0.0 mm 0.00 in0.0 mm 1.73 in43.9 mm
08:45 PM 53.4°F11.9°C 47.8°F8.8°C 81% 10.5 mph SSW16.9 kmh SSW 16.8 mph27.0 kmh 29.44 in997.0 mb 0.00 in0.0 mm 0.00 in0.0 mm 1.73 in43.9 mm
08:50 PM 53.4°F11.9°C 47.8°F8.8°C 81% 3.1 mph S5.0 kmh S 19.5 mph31.4 kmh 29.44 in997.0 mb 0.00 in0.0 mm 0.00 in0.0 mm 1.73 in43.9 mm
08:55 PM 53.4°F11.9°C 48.1°F8.9°C 82% 4.0 mph S6.4 kmh S 21.0 mph33.8 kmh 29.44 in997.0 mb 0.00 in0.0 mm 0.00 in0.0 mm 1.73 in43.9 mm
09:00 PM 53.4°F11.9°C 48.1°F8.9°C 82% 4.3 mph S6.9 kmh S 21.0 mph33.8 kmh 29.44 in997.0 mb 0.00 in0.0 mm 0.00 in0.0 mm 1.73 in43.9 mm
09:05 PM 53.4°F11.9°C 48.1°F8.9°C 82% 5.8 mph SSE9.3 kmh SSE 11.9 mph19.2 kmh 29.44 in997.0 mb 0.00 in0.0 mm 0.00 in0.0 mm 1.73 in43.9 mm
09:10 PM 53.8°F12.1°C 48.4°F9.1°C 82% 5.4 mph SE8.7 kmh SE 15.2 mph24.5 kmh 29.44 in997.0 mb 0.00 in0.0 mm 0.00 in0.0 mm 1.73 in43.9 mm
09:15 PM 54.0°F12.2°C 48.3°F9.1°C 81% 3.1 mph SE5.0 kmh SE 15.2 mph24.5 kmh 29.44 in997.0 mb 0.00 in0.0 mm 0.00 in0.0 mm 1.73 in43.9 mm
09:20 PM 54.0°F12.2°C 48.0°F8.9°C 80% 6.9 mph ESE11.1 kmh ESE 12.1 mph19.5 kmh 29.44 in997.0 mb 0.00 in0.0 mm 0.00 in0.0 mm 1.73 in43.9 mm
09:25 PM 54.0°F12.2°C 48.0°F8.9°C 80% 7.4 mph E11.9 kmh E 11.9 mph19.2 kmh 29.44 in997.0 mb 0.00 in0.0 mm 0.00 in0.0 mm 1.73 in43.9 mm
09:30 PM 54.1°F12.3°C 48.1°F8.9°C 80% Calm Calm 10.1 mph16.3 kmh 29.44 in997.0 mb 0.00 in0.0 mm 0.00 in0.0 mm 1.73 in43.9 mm
09:35 PM 54.3°F12.4°C 48.6°F9.2°C 81% 3.1 mph E5.0 kmh E 15.0 mph24.1 kmh 29.44 in997.0 mb 0.00 in0.0 mm 0.00 in0.0 mm 1.73 in43.9 mm
09:40 PM 54.1°F12.3°C 48.5°F9.2°C 81% 3.6 mph NE5.8 kmh NE 16.1 mph25.9 kmh 29.44 in997.0 mb 0.00 in0.0 mm 0.00 in0.0 mm 1.73 in43.9 mm
09:45 PM 54.1°F12.3°C 48.5°F9.2°C 81% 2.9 mph E4.7 kmh E 16.1 mph25.9 kmh 29.44 in997.0 mb 0.00 in0.0 mm 0.00 in0.0 mm 1.73 in43.9 mm
09:50 PM 54.1°F12.3°C 48.8°F9.3°C 82% 2.7 mph SSE4.3 kmh SSE 13.6 mph21.9 kmh 29.44 in997.0 mb 0.00 in0.0 mm 0.00 in0.0 mm 1.73 in43.9 mm
09:55 PM 54.0°F12.2°C 48.6°F9.2°C 82% 8.1 mph SSE13.0 kmh SSE 10.1 mph16.3 kmh 29.44 in997.0 mb 0.00 in0.0 mm 0.00 in0.0 mm 1.73 in43.9 mm
10:00 PM 54.0°F12.2°C 48.6°F9.2°C 82% 5.1 mph S8.2 kmh S 16.6 mph26.7 kmh 29.44 in997.0 mb 0.00 in0.0 mm 0.00 in0.0 mm 1.73 in43.9 mm
10:05 PM 54.0°F12.2°C 48.6°F9.2°C 82% 10.3 mph S16.6 kmh S 20.4 mph32.8 kmh 29.44 in997.0 mb 0.00 in0.0 mm 0.00 in0.0 mm 1.73 in43.9 mm
10:10 PM 54.0°F12.2°C 48.6°F9.2°C 82% 5.4 mph S8.7 kmh S 20.4 mph32.8 kmh 29.44 in997.0 mb 0.00 in0.0 mm 0.00 in0.0 mm 1.73 in43.9 mm
10:15 PM 53.8°F12.1°C 48.4°F9.1°C 82% 2.5 mph SE4.0 kmh SE 12.1 mph19.5 kmh 29.44 in997.0 mb 0.00 in0.0 mm 0.00 in0.0 mm 1.73 in43.9 mm
10:20 PM 54.0°F12.2°C 48.6°F9.2°C 82% 4.7 mph SE7.6 kmh SE 12.1 mph19.5 kmh 29.44 in997.0 mb 0.00 in0.0 mm 0.00 in0.0 mm 1.73 in43.9 mm
10:25 PM 54.0°F12.2°C 48.6°F9.2°C 82% 4.5 mph SE7.2 kmh SE 9.6 mph15.4 kmh 29.44 in997.0 mb 0.00 in0.0 mm 0.00 in0.0 mm 1.73 in43.9 mm
10:30 PM 54.0°F12.2°C 48.6°F9.2°C 82% 7.4 mph ESE11.9 kmh ESE 12.3 mph19.8 kmh 29.44 in997.0 mb 0.00 in0.0 mm 0.00 in0.0 mm 1.73 in43.9 mm
10:35 PM 54.1°F12.3°C 48.5°F9.2°C 81% 1.8 mph ESE2.9 kmh ESE 12.3 mph19.8 kmh 29.44 in997.0 mb 0.00 in0.0 mm 0.00 in0.0 mm 1.73 in43.9 mm
10:40 PM 54.0°F12.2°C 48.3°F9.1°C 81% 3.8 mph E6.1 kmh E 12.8 mph20.6 kmh 29.44 in997.0 mb 0.00 in0.0 mm 0.00 in0.0 mm 1.73 in43.9 mm
10:45 PM 54.1°F12.3°C 48.5°F9.2°C 81% 1.8 mph E2.9 kmh E 12.8 mph20.6 kmh 29.44 in997.0 mb 0.00 in0.0 mm 0.00 in0.0 mm 1.73 in43.9 mm
10:50 PM 54.1°F12.3°C 48.5°F9.2°C 81% 8.9 mph E14.3 kmh E 17.4 mph28.0 kmh 29.44 in997.0 mb 0.00 in0.0 mm 0.00 in0.0 mm 1.73 in43.9 mm
10:55 PM 54.1°F12.3°C 48.5°F9.2°C 81% 12.1 mph E19.5 kmh E 17.4 mph28.0 kmh 29.44 in997.0 mb 0.00 in0.0 mm 0.00 in0.0 mm 1.73 in43.9 mm
11:00 PM 54.1°F12.3°C 48.5°F9.2°C 81% 14.8 mph E23.8 kmh E 17.9 mph28.8 kmh 29.44 in997.0 mb 0.00 in0.0 mm 0.00 in0.0 mm 1.73 in43.9 mm
11:05 PM 54.3°F12.4°C 48.3°F9.1°C 80% 6.7 mph NE10.8 kmh NE 26.8 mph43.1 kmh 29.43 in996.6 mb 0.00 in0.0 mm 0.00 in0.0 mm 1.73 in43.9 mm
11:10 PM 54.3°F12.4°C 48.3°F9.1°C 80% 13.2 mph NE21.2 kmh NE 26.8 mph43.1 kmh 29.43 in996.6 mb 0.00 in0.0 mm 0.00 in0.0 mm 1.73 in43.9 mm
11:15 PM 54.3°F12.4°C 47.9°F8.8°C 79% 15.9 mph ENE25.6 kmh ENE 23.0 mph37.0 kmh 29.43 in996.6 mb 0.00 in0.0 mm 0.00 in0.0 mm 1.73 in43.9 mm
11:20 PM 54.1°F12.3°C 47.8°F8.8°C 79% 10.5 mph ENE16.9 kmh ENE 25.5 mph41.0 kmh 29.44 in997.0 mb 0.00 in0.0 mm 0.00 in0.0 mm 1.73 in43.9 mm
11:25 PM 54.1°F12.3°C 47.8°F8.8°C 79% 13.0 mph NE20.9 kmh NE 25.5 mph41.0 kmh 29.43 in996.6 mb 0.00 in0.0 mm 0.00 in0.0 mm 1.73 in43.9 mm
11:30 PM 54.1°F12.3°C 47.8°F8.8°C 79% 8.5 mph NE13.7 kmh NE 23.0 mph37.0 kmh 29.43 in996.6 mb 0.00 in0.0 mm 0.00 in0.0 mm 1.73 in43.9 mm
11:35 PM 54.1°F12.3°C 48.1°F8.9°C 80% 6.7 mph NE10.8 kmh NE 20.1 mph32.3 kmh 29.43 in996.6 mb 0.00 in0.0 mm 0.00 in0.0 mm 1.73 in43.9 mm
11:40 PM 54.1°F12.3°C 48.1°F8.9°C 80% 13.0 mph ENE20.9 kmh ENE 18.8 mph30.3 kmh 29.43 in996.6 mb 0.00 in0.0 mm 0.00 in0.0 mm 1.73 in43.9 mm
11:45 PM 54.1°F12.3°C 48.1°F8.9°C 80% 15.7 mph NE25.3 kmh NE 23.5 mph37.8 kmh 29.43 in996.6 mb 0.00 in0.0 mm 0.00 in0.0 mm 1.73 in43.9 mm
11:50 PM 54.1°F12.3°C 47.8°F8.8°C 79% 15.2 mph NE24.5 kmh NE 23.5 mph37.8 kmh 29.43 in996.6 mb 0.00 in0.0 mm 0.00 in0.0 mm 1.73 in43.9 mm
11:55 PM 54.1°F12.3°C 47.8°F8.8°C 79% 4.0 mph NE6.4 kmh NE 22.1 mph35.6 kmh 29.43 in996.6 mb 0.00 in0.0 mm 0.00 in0.0 mm 1.73 in43.9 mm